Hasabi II — ZCPG3 — position and weather

sailwx.info

Track history (hours):
 
Tides and Currents Weather Stations Pressure Air Temp Water Temp Dewpoint Dewpoint Depression Visibility Wind Speed Wind Dir Waves Ship Positions

Hasabi II

Last reported at 2017-Jul-29 03:09 UTC. Time now 2017-Jul-29 11:55 UTC.
Position N 37°48' E 023°47'.

Length 58 m; draft 3 m.

Type: Ship (hazmat cat C). MMSI: 319022000.

Date/timePositionNaut miles runAvg speedWind from/ knotsBaromVisibWave heightAir tempDewpointWater temp
2017-Jul-29 03:09N 37°48' E 023°47'1 4.4
2017-Jul-29 03:00N 37°48' E 023°47'0 0.1
2017-Jul-29 02:25N 37°48' E 023°47'0 0.0
2017-Jul-29 01:54N 37°48' E 023°47'0 0.0
2017-Jul-29 01:29N 37°48' E 023°47'0 0.0
2017-Jul-29 01:00N 37°48' E 023°47'0 0.0
2017-Jul-29 00:30N 37°48' E 023°47'0 0.0
2017-Jul-29 00:00N 37°48' E 023°47'0 0.0
2017-Jul-28 23:30N 37°48' E 023°47'0 0.0
2017-Jul-28 23:00N 37°48' E 023°47'0 0.0
2017-Jul-28 22:28N 37°48' E 023°47'0 0.0
2017-Jul-28 22:00N 37°48' E 023°47'0 0.0
2017-Jul-28 21:26N 37°48' E 023°47'0 0.0
2017-Jul-28 21:00N 37°48' E 023°47'0 0.0
2017-Jul-28 20:30N 37°48' E 023°47'0 0.0
2017-Jul-28 19:50N 37°48' E 023°47'0 0.0
2017-Jul-28 19:26N 37°48' E 023°47'0 0.0
2017-Jul-28 19:00N 37°48' E 023°47'0 0.0
2017-Jul-28 18:29N 37°48' E 023°47'0 0.0
2017-Jul-28 18:00N 37°48' E 023°47'0 0.0
2017-Jul-28 17:24N 37°48' E 023°47'0 0.1
2017-Jul-28 17:00N 37°48' E 023°47'0 0.1
2017-Jul-28 16:28N 37°48' E 023°47'0 0.0
2017-Jul-28 15:58N 37°48' E 023°47'0 0.0
2017-Jul-28 15:30N 37°48' E 023°47'0 0.0
2017-Jul-28 15:00N 37°48' E 023°47'0 0.0
2017-Jul-28 14:30N 37°48' E 023°47'0 0.0
2017-Jul-28 14:00N 37°48' E 023°47'0 0.0
2017-Jul-28 13:27N 37°48' E 023°47'0 0.0
2017-Jul-28 12:59N 37°48' E 023°47'0 0.0
2017-Jul-28 12:30N 37°48' E 023°47'0 0.0
2017-Jul-28 11:58N 37°48' E 023°47'0 0.0
2017-Jul-28 11:30N 37°48' E 023°47'0 0.0
2017-Jul-28 11:00N 37°48' E 023°47'0 0.0
2017-Jul-28 10:27N 37°48' E 023°47'0 0.0
2017-Jul-28 09:59N 37°48' E 023°47'0 0.1
2017-Jul-28 09:30N 37°48' E 023°47'0 0.1
2017-Jul-28 09:00N 37°48' E 023°47'0 0.0
2017-Jul-28 08:30N 37°48' E 023°47'0 0.0
2017-Jul-28 08:00N 37°48' E 023°47'0 0.0
2017-Jul-28 07:29N 37°48' E 023°47'1 2.2
2017-Jul-28 07:00N 37°47' E 023°46'5 9.6
2017-Jul-28 06:30N 37°51' E 023°42'510.0
2017-Jul-28 06:00N 37°55' E 023°38'4 7.8
2017-Jul-28 05:30N 37°57' E 023°34'0 0.6
2017-Jul-28 05:00N 37°58' E 023°34'  
2017-Jul-21 05:14N 37°58' E 023°34'0 0.0
2017-Jul-21 05:01N 37°58' E 023°34'2 3.1
2017-Jul-21 04:31N 37°57' E 023°36'3 5.8
2017-Jul-21 04:00N 37°54' E 023°37'5 9.6
2017-Jul-21 03:31N 37°50' E 023°40'5 9.5
2017-Jul-21 03:00N 37°45' E 023°43'50 8.8
2017-Jul-20 21:16N 37°32' E 024°44'2 9.1
2017-Jul-20 21:00N 37°32' E 024°47'5 9.3
2017-Jul-20 20:30N 37°33' E 024°53'9 9.4
2017-Jul-20 19:34N 37°30' E 025°03'1 9.2
2017-Jul-20 19:30N 37°30' E 025°04'5 9.3
2017-Jul-20 19:01N 37°29' E 025°10'6 9.7
2017-Jul-20 18:27N 37°27' E 025°17'3 0.2
2017-Jul-20 04:38N 37°27' E 025°20'0 0.0
2017-Jul-20 04:29N 37°27' E 025°20'0 0.0
2017-Jul-20 04:00N 37°27' E 025°20'0 0.0
2017-Jul-20 03:02N 37°27' E 025°20'0 0.0
2017-Jul-20 03:00N 37°27' E 025°20'0 0.0
2017-Jul-20 02:28N 37°27' E 025°20'0 0.0
2017-Jul-20 02:01N 37°27' E 025°20'0 0.0
2017-Jul-20 01:30N 37°27' E 025°20'0 0.0
2017-Jul-20 00:59N 37°27' E 025°20'0 0.0
2017-Jul-20 00:28N 37°27' E 025°20'0 0.0
2017-Jul-20 00:01N 37°27' E 025°20'0 0.0
2017-Jul-19 23:30N 37°27' E 025°20'0 0.0
2017-Jul-19 23:01N 37°27' E 025°20'0 0.0
2017-Jul-19 22:27N 37°27' E 025°20'0 0.0
2017-Jul-19 21:40N 37°27' E 025°20'0 0.0
2017-Jul-19 21:23N 37°27' E 025°20'0 0.0
2017-Jul-19 20:47N 37°27' E 025°20'0 0.0
2017-Jul-19 20:29N 37°27' E 025°20'0 0.0
2017-Jul-19 16:43N 37°27' E 025°20'0 0.0
2017-Jul-19 15:43N 37°27' E 025°20'0 0.0
2017-Jul-19 14:18N 37°27' E 025°20'0 0.0
2017-Jul-19 13:49N 37°27' E 025°20'0 0.0
2017-Jul-19 13:18N 37°27' E 025°20'0 0.0
2017-Jul-19 12:43N 37°27' E 025°20'0 0.0
2017-Jul-19 12:22N 37°27' E 025°20'0 0.0
2017-Jul-19 08:06N 37°27' E 025°20'0 0.0
2017-Jul-19 07:38N 37°27' E 025°20'0 0.0
2017-Jul-19 07:31N 37°27' E 025°20'0 0.0
2017-Jul-19 07:00N 37°27' E 025°20'0 0.0
2017-Jul-19 06:30N 37°27' E 025°20'0 0.0
2017-Jul-19 06:00N 37°27' E 025°20'0 0.0
2017-Jul-19 05:27N 37°27' E 025°20'0 0.0
2017-Jul-19 05:01N 37°27' E 025°20'  
Track history (hours):
 
Tides and Currents Weather Stations Pressure Air Temp Water Temp Dewpoint Dewpoint Depression Visibility Wind Speed Wind Dir Waves Ship Positions

Hasabi II

Last reported at 2017-Jul-29 03:09 UTC. Time now 2017-Jul-29 11:55 UTC.
Position N 37°48' E 023°47'.

Length 58 m; draft 3 m.

Type: Ship (hazmat cat C). MMSI: 319022000.

Date/timePositionNaut miles runAvg speedWind from/ knotsBaromVisibWave heightAir tempDewpointWater temp
2017-Jul-29 03:09N 37°48' E 023°47'1 4.4
2017-Jul-29 03:00N 37°48' E 023°47'0 0.1
2017-Jul-29 02:25N 37°48' E 023°47'0 0.0
2017-Jul-29 01:54N 37°48' E 023°47'0 0.0
2017-Jul-29 01:29N 37°48' E 023°47'0 0.0
2017-Jul-29 01:00N 37°48' E 023°47'0 0.0
2017-Jul-29 00:30N 37°48' E 023°47'0 0.0
2017-Jul-29 00:00N 37°48' E 023°47'0 0.0
2017-Jul-28 23:30N 37°48' E 023°47'0 0.0
2017-Jul-28 23:00N 37°48' E 023°47'0 0.0
2017-Jul-28 22:28N 37°48' E 023°47'0 0.0
2017-Jul-28 22:00N 37°48' E 023°47'0 0.0
2017-Jul-28 21:26N 37°48' E 023°47'0 0.0
2017-Jul-28 21:00N 37°48' E 023°47'0 0.0
2017-Jul-28 20:30N 37°48' E 023°47'0 0.0
2017-Jul-28 19:50N 37°48' E 023°47'0 0.0
2017-Jul-28 19:26N 37°48' E 023°47'0 0.0
2017-Jul-28 19:00N 37°48' E 023°47'0 0.0
2017-Jul-28 18:29N 37°48' E 023°47'0 0.0
2017-Jul-28 18:00N 37°48' E 023°47'0 0.0
2017-Jul-28 17:24N 37°48' E 023°47'0 0.1
2017-Jul-28 17:00N 37°48' E 023°47'0 0.1
2017-Jul-28 16:28N 37°48' E 023°47'0 0.0
2017-Jul-28 15:58N 37°48' E 023°47'0 0.0
2017-Jul-28 15:30N 37°48' E 023°47'0 0.0
2017-Jul-28 15:00N 37°48' E 023°47'0 0.0
2017-Jul-28 14:30N 37°48' E 023°47'0 0.0
2017-Jul-28 14:00N 37°48' E 023°47'0 0.0
2017-Jul-28 13:27N 37°48' E 023°47'0 0.0
2017-Jul-28 12:59N 37°48' E 023°47'0 0.0
2017-Jul-28 12:30N 37°48' E 023°47'0 0.0
2017-Jul-28 11:58N 37°48' E 023°47'0 0.0
2017-Jul-28 11:30N 37°48' E 023°47'0 0.0
2017-Jul-28 11:00N 37°48' E 023°47'0 0.0
2017-Jul-28 10:27N 37°48' E 023°47'0 0.0
2017-Jul-28 09:59N 37°48' E 023°47'0 0.1
2017-Jul-28 09:30N 37°48' E 023°47'0 0.1
2017-Jul-28 09:00N 37°48' E 023°47'0 0.0
2017-Jul-28 08:30N 37°48' E 023°47'0 0.0
2017-Jul-28 08:00N 37°48' E 023°47'0 0.0
2017-Jul-28 07:29N 37°48' E 023°47'1 2.2
2017-Jul-28 07:00N 37°47' E 023°46'5 9.6
2017-Jul-28 06:30N 37°51' E 023°42'510.0
2017-Jul-28 06:00N 37°55' E 023°38'4 7.8
2017-Jul-28 05:30N 37°57' E 023°34'0 0.6
2017-Jul-28 05:00N 37°58' E 023°34'  
2017-Jul-21 05:14N 37°58' E 023°34'0 0.0
2017-Jul-21 05:01N 37°58' E 023°34'2 3.1
2017-Jul-21 04:31N 37°57' E 023°36'3 5.8
2017-Jul-21 04:00N 37°54' E 023°37'5 9.6
2017-Jul-21 03:31N 37°50' E 023°40'5 9.5
2017-Jul-21 03:00N 37°45' E 023°43'50 8.8
2017-Jul-20 21:16N 37°32' E 024°44'2 9.1
2017-Jul-20 21:00N 37°32' E 024°47'5 9.3
2017-Jul-20 20:30N 37°33' E 024°53'9 9.4
2017-Jul-20 19:34N 37°30' E 025°03'1 9.2
2017-Jul-20 19:30N 37°30' E 025°04'5 9.3
2017-Jul-20 19:01N 37°29' E 025°10'6 9.7
2017-Jul-20 18:27N 37°27' E 025°17'3 0.2
2017-Jul-20 04:38N 37°27' E 025°20'0 0.0
2017-Jul-20 04:29N 37°27' E 025°20'0 0.0
2017-Jul-20 04:00N 37°27' E 025°20'0 0.0
2017-Jul-20 03:02N 37°27' E 025°20'0 0.0
2017-Jul-20 03:00N 37°27' E 025°20'0 0.0
2017-Jul-20 02:28N 37°27' E 025°20'0 0.0
2017-Jul-20 02:01N 37°27' E 025°20'0 0.0
2017-Jul-20 01:30N 37°27' E 025°20'0 0.0
2017-Jul-20 00:59N 37°27' E 025°20'0 0.0
2017-Jul-20 00:28N 37°27' E 025°20'0 0.0
2017-Jul-20 00:01N 37°27' E 025°20'0 0.0
2017-Jul-19 23:30N 37°27' E 025°20'0 0.0
2017-Jul-19 23:01N 37°27' E 025°20'0 0.0
2017-Jul-19 22:27N 37°27' E 025°20'0 0.0
2017-Jul-19 21:40N 37°27' E 025°20'0 0.0
2017-Jul-19 21:23N 37°27' E 025°20'0 0.0
2017-Jul-19 20:47N 37°27' E 025°20'0 0.0
2017-Jul-19 20:29N 37°27' E 025°20'0 0.0
2017-Jul-19 16:43N 37°27' E 025°20'0 0.0
2017-Jul-19 15:43N 37°27' E 025°20'0 0.0
2017-Jul-19 14:18N 37°27' E 025°20'0 0.0
2017-Jul-19 13:49N 37°27' E 025°20'0 0.0
2017-Jul-19 13:18N 37°27' E 025°20'0 0.0
2017-Jul-19 12:43N 37°27' E 025°20'0 0.0
2017-Jul-19 12:22N 37°27' E 025°20'0 0.0
2017-Jul-19 08:06N 37°27' E 025°20'0 0.0
2017-Jul-19 07:38N 37°27' E 025°20'0 0.0
2017-Jul-19 07:31N 37°27' E 025°20'0 0.0
2017-Jul-19 07:00N 37°27' E 025°20'0 0.0
2017-Jul-19 06:30N 37°27' E 025°20'0 0.0
2017-Jul-19 06:00N 37°27' E 025°20'0 0.0
2017-Jul-19 05:27N 37°27' E 025°20'0 0.0
2017-Jul-19 05:01N 37°27' E 025°20'  

Dump ship's entire track history